sensor_id;sensor_type;location;lat;lon;timestamp;P1;durP1;ratioP1;P2;durP2;ratioP2
79171;SDS011;68597;53.238;-1.418;2023-03-24T00:01:16;7.80;;;2.88;;
79171;SDS011;68597;53.238;-1.418;2023-03-24T00:03:42;8.35;;;2.90;;
79171;SDS011;68597;53.238;-1.418;2023-03-24T00:06:09;8.10;;;2.60;;
79171;SDS011;68597;53.238;-1.418;2023-03-24T00:08:35;11.43;;;3.10;;
79171;SDS011;68597;53.238;-1.418;2023-03-24T00:11:03;10.65;;;4.35;;
79171;SDS011;68597;53.238;-1.418;2023-03-24T00:13:30;12.77;;;2.92;;
79171;SDS011;68597;53.238;-1.418;2023-03-24T00:15:56;10.45;;;2.83;;
79171;SDS011;68597;53.238;-1.418;2023-03-24T00:18:22;6.72;;;2.47;;
79171;SDS011;68597;53.238;-1.418;2023-03-24T00:20:47;10.15;;;3.22;;
79171;SDS011;68597;53.238;-1.418;2023-03-24T00:23:13;9.52;;;2.55;;
79171;SDS011;68597;53.238;-1.418;2023-03-24T00:25:39;9.35;;;2.35;;
79171;SDS011;68597;53.238;-1.418;2023-03-24T00:28:06;11.05;;;3.15;;
79171;SDS011;68597;53.238;-1.418;2023-03-24T00:30:32;6.05;;;2.00;;
79171;SDS011;68597;53.238;-1.418;2023-03-24T00:32:58;9.10;;;2.15;;
79171;SDS011;68597;53.238;-1.418;2023-03-24T00:35:24;7.70;;;2.35;;
79171;SDS011;68597;53.238;-1.418;2023-03-24T00:37:50;8.15;;;2.00;;
79171;SDS011;68597;53.238;-1.418;2023-03-24T00:40:16;6.68;;;2.10;;
79171;SDS011;68597;53.238;-1.418;2023-03-24T00:42:43;11.57;;;2.28;;
79171;SDS011;68597;53.238;-1.418;2023-03-24T00:45:11;8.60;;;1.90;;
79171;SDS011;68597;53.238;-1.418;2023-03-24T00:47:38;9.35;;;1.48;;
79171;SDS011;68597;53.238;-1.418;2023-03-24T00:50:04;8.57;;;2.33;;
79171;SDS011;68597;53.238;-1.418;2023-03-24T00:52:32;11.48;;;2.22;;
79171;SDS011;68597;53.238;-1.418;2023-03-24T00:54:59;8.30;;;2.42;;
79171;SDS011;68597;53.238;-1.418;2023-03-24T00:57:25;8.40;;;1.67;;
79171;SDS011;68597;53.238;-1.418;2023-03-24T00:59:52;8.48;;;1.88;;
79171;SDS011;68597;53.238;-1.418;2023-03-24T01:02:20;12.02;;;2.40;;
79171;SDS011;68597;53.238;-1.418;2023-03-24T01:04:47;5.20;;;1.42;;
79171;SDS011;68597;53.238;-1.418;2023-03-24T01:07:15;11.23;;;2.45;;
79171;SDS011;68597;53.238;-1.418;2023-03-24T01:09:42;11.65;;;1.98;;
79171;SDS011;68597;53.238;-1.418;2023-03-24T01:12:08;15.45;;;2.55;;
79171;SDS011;68597;53.238;-1.418;2023-03-24T01:14:34;11.15;;;2.65;;
79171;SDS011;68597;53.238;-1.418;2023-03-24T01:16:59;9.02;;;1.90;;
79171;SDS011;68597;53.238;-1.418;2023-03-24T01:19:26;6.32;;;1.60;;
79171;SDS011;68597;53.238;-1.418;2023-03-24T01:21:52;13.23;;;2.45;;
79171;SDS011;68597;53.238;-1.418;2023-03-24T01:24:17;7.90;;;2.65;;
79171;SDS011;68597;53.238;-1.418;2023-03-24T01:26:43;8.43;;;2.10;;
79171;SDS011;68597;53.238;-1.418;2023-03-24T01:29:08;4.82;;;1.23;;
79171;SDS011;68597;53.238;-1.418;2023-03-24T01:31:34;8.05;;;1.60;;
79171;SDS011;68597;53.238;-1.418;2023-03-24T01:34:00;10.13;;;2.22;;
79171;SDS011;68597;53.238;-1.418;2023-03-24T01:36:27;11.05;;;1.85;;
79171;SDS011;68597;53.238;-1.418;2023-03-24T01:38:53;13.18;;;1.75;;
79171;SDS011;68597;53.238;-1.418;2023-03-24T01:41:18;11.13;;;2.05;;
79171;SDS011;68597;53.238;-1.418;2023-03-24T01:43:44;7.00;;;2.33;;
79171;SDS011;68597;53.238;-1.418;2023-03-24T01:46:14;10.38;;;1.70;;
79171;SDS011;68597;53.238;-1.418;2023-03-24T01:48:43;11.70;;;1.50;;
79171;SDS011;68597;53.238;-1.418;2023-03-24T01:51:14;6.93;;;1.42;;
79171;SDS011;68597;53.238;-1.418;2023-03-24T01:53:45;8.98;;;2.10;;
79171;SDS011;68597;53.238;-1.418;2023-03-24T01:56:15;9.02;;;2.30;;
79171;SDS011;68597;53.238;-1.418;2023-03-24T01:58:44;8.82;;;1.75;;
79171;SDS011;68597;53.238;-1.418;2023-03-24T02:01:21;6.88;;;1.85;;
79171;SDS011;68597;53.238;-1.418;2023-03-24T02:03:57;8.05;;;1.58;;
79171;SDS011;68597;53.238;-1.418;2023-03-24T02:06:23;6.47;;;1.35;;
79171;SDS011;68597;53.238;-1.418;2023-03-24T02:08:51;7.45;;;1.10;;
79171;SDS011;68597;53.238;-1.418;2023-03-24T02:11:21;9.40;;;1.83;;
79171;SDS011;68597;53.238;-1.418;2023-03-24T02:13:53;7.68;;;1.17;;
79171;SDS011;68597;53.238;-1.418;2023-03-24T02:16:22;11.10;;;1.90;;
79171;SDS011;68597;53.238;-1.418;2023-03-24T02:19:07;13.15;;;2.08;;
79171;SDS011;68597;53.238;-1.418;2023-03-24T02:22:03;8.88;;;1.33;;
79171;SDS011;68597;53.238;-1.418;2023-03-24T02:25:19;7.10;;;1.20;;
79171;SDS011;68597;53.238;-1.418;2023-03-24T02:28:09;12.75;;;1.83;;
79171;SDS011;68597;53.238;-1.418;2023-03-24T02:33:59;10.95;;;1.27;;
79171;SDS011;68597;53.238;-1.418;2023-03-24T02:36:48;14.98;;;2.55;;
79171;SDS011;68597;53.238;-1.418;2023-03-24T02:42:42;9.07;;;1.40;;
79171;SDS011;68597;53.238;-1.418;2023-03-24T02:45:20;9.90;;;1.58;;
79171;SDS011;68597;53.238;-1.418;2023-03-24T02:47:53;12.40;;;1.73;;
79171;SDS011;68597;53.238;-1.418;2023-03-24T02:50:30;11.40;;;1.88;;
79171;SDS011;68597;53.238;-1.418;2023-03-24T02:53:04;10.02;;;1.73;;
79171;SDS011;68597;53.238;-1.418;2023-03-24T02:55:39;13.52;;;1.60;;
79171;SDS011;68597;53.238;-1.418;2023-03-24T02:58:12;10.82;;;1.70;;
79171;SDS011;68597;53.238;-1.418;2023-03-24T03:00:49;8.52;;;1.10;;
79171;SDS011;68597;53.238;-1.418;2023-03-24T03:03:37;6.93;;;1.25;;
79171;SDS011;68597;53.238;-1.418;2023-03-24T03:06:06;11.05;;;2.17;;
79171;SDS011;68597;53.238;-1.418;2023-03-24T03:08:36;9.63;;;1.52;;
79171;SDS011;68597;53.238;-1.418;2023-03-24T03:11:04;10.65;;;1.60;;
79171;SDS011;68597;53.238;-1.418;2023-03-24T03:13:35;8.48;;;1.40;;
79171;SDS011;68597;53.238;-1.418;2023-03-24T03:16:04;10.75;;;1.45;;
79171;SDS011;68597;53.238;-1.418;2023-03-24T03:18:35;14.73;;;2.38;;
79171;SDS011;68597;53.238;-1.418;2023-03-24T03:21:05;10.50;;;1.50;;
79171;SDS011;68597;53.238;-1.418;2023-03-24T03:23:35;10.43;;;1.60;;
79171;SDS011;68597;53.238;-1.418;2023-03-24T03:26:03;8.20;;;1.60;;
79171;SDS011;68597;53.238;-1.418;2023-03-24T03:28:35;11.02;;;1.45;;
79171;SDS011;68597;53.238;-1.418;2023-03-24T03:31:05;11.48;;;1.70;;
79171;SDS011;68597;53.238;-1.418;2023-03-24T03:33:34;10.15;;;1.50;;
79171;SDS011;68597;53.238;-1.418;2023-03-24T03:36:05;6.82;;;1.27;;
79171;SDS011;68597;53.238;-1.418;2023-03-24T03:38:35;11.63;;;1.85;;
79171;SDS011;68597;53.238;-1.418;2023-03-24T03:41:08;10.07;;;2.22;;
79171;SDS011;68597;53.238;-1.418;2023-03-24T03:43:37;10.57;;;1.52;;
79171;SDS011;68597;53.238;-1.418;2023-03-24T03:46:04;14.60;;;1.48;;
79171;SDS011;68597;53.238;-1.418;2023-03-24T03:48:33;7.40;;;1.38;;
79171;SDS011;68597;53.238;-1.418;2023-03-24T03:51:01;14.93;;;1.42;;
79171;SDS011;68597;53.238;-1.418;2023-03-24T03:53:27;13.20;;;1.80;;
79171;SDS011;68597;53.238;-1.418;2023-03-24T03:56:00;12.23;;;2.63;;
79171;SDS011;68597;53.238;-1.418;2023-03-24T03:58:28;11.27;;;1.70;;
79171;SDS011;68597;53.238;-1.418;2023-03-24T04:00:57;9.95;;;1.27;;
79171;SDS011;68597;53.238;-1.418;2023-03-24T04:03:39;7.40;;;1.27;;
79171;SDS011;68597;53.238;-1.418;2023-03-24T04:06:21;10.80;;;1.75;;
79171;SDS011;68597;53.238;-1.418;2023-03-24T04:08:59;13.25;;;1.92;;
79171;SDS011;68597;53.238;-1.418;2023-03-24T04:11:45;10.65;;;2.25;;
79171;SDS011;68597;53.238;-1.418;2023-03-24T04:15:02;10.05;;;1.63;;
79171;SDS011;68597;53.238;-1.418;2023-03-24T04:18:02;8.13;;;1.85;;
79171;SDS011;68597;53.238;-1.418;2023-03-24T04:23:52;13.15;;;2.15;;
79171;SDS011;68597;53.238;-1.418;2023-03-24T04:26:26;10.10;;;1.90;;
79171;SDS011;68597;53.238;-1.418;2023-03-24T04:29:03;8.55;;;1.40;;
79171;SDS011;68597;53.238;-1.418;2023-03-24T04:31:33;8.10;;;1.58;;
79171;SDS011;68597;53.238;-1.418;2023-03-24T04:34:03;13.23;;;2.05;;
79171;SDS011;68597;53.238;-1.418;2023-03-24T04:36:40;9.25;;;1.92;;
79171;SDS011;68597;53.238;-1.418;2023-03-24T04:39:24;14.57;;;2.97;;
79171;SDS011;68597;53.238;-1.418;2023-03-24T04:41:54;12.60;;;1.73;;
79171;SDS011;68597;53.238;-1.418;2023-03-24T04:47:09;14.25;;;2.25;;
79171;SDS011;68597;53.238;-1.418;2023-03-24T04:49:39;6.43;;;1.70;;
79171;SDS011;68597;53.238;-1.418;2023-03-24T04:52:05;6.72;;;1.33;;
79171;SDS011;68597;53.238;-1.418;2023-03-24T04:54:32;13.38;;;1.83;;
79171;SDS011;68597;53.238;-1.418;2023-03-24T04:57:03;10.80;;;2.85;;
79171;SDS011;68597;53.238;-1.418;2023-03-24T04:59:32;9.13;;;1.45;;
79171;SDS011;68597;53.238;-1.418;2023-03-24T05:01:58;7.10;;;1.98;;
79171;SDS011;68597;53.238;-1.418;2023-03-24T05:04:30;12.48;;;2.22;;
79171;SDS011;68597;53.238;-1.418;2023-03-24T05:07:06;15.13;;;2.63;;
79171;SDS011;68597;53.238;-1.418;2023-03-24T05:09:33;13.20;;;2.15;;
79171;SDS011;68597;53.238;-1.418;2023-03-24T05:12:00;11.00;;;2.08;;
79171;SDS011;68597;53.238;-1.418;2023-03-24T05:14:25;11.50;;;1.85;;
79171;SDS011;68597;53.238;-1.418;2023-03-24T05:16:51;11.25;;;1.90;;
79171;SDS011;68597;53.238;-1.418;2023-03-24T05:19:18;11.88;;;2.05;;
79171;SDS011;68597;53.238;-1.418;2023-03-24T05:21:44;11.45;;;2.33;;
79171;SDS011;68597;53.238;-1.418;2023-03-24T05:24:11;12.73;;;2.47;;
79171;SDS011;68597;53.238;-1.418;2023-03-24T05:26:37;8.80;;;2.55;;
79171;SDS011;68597;53.238;-1.418;2023-03-24T05:29:15;7.65;;;1.45;;
79171;SDS011;68597;53.238;-1.418;2023-03-24T05:31:41;11.23;;;1.65;;
79171;SDS011;68597;53.238;-1.418;2023-03-24T05:34:15;9.88;;;1.63;;
79171;SDS011;68597;53.238;-1.418;2023-03-24T05:37:07;11.57;;;1.58;;
79171;SDS011;68597;53.238;-1.418;2023-03-24T05:39:34;18.05;;;2.00;;
79171;SDS011;68597;53.238;-1.418;2023-03-24T05:42:18;12.65;;;3.10;;
79171;SDS011;68597;53.238;-1.418;2023-03-24T05:44:44;12.90;;;2.50;;
79171;SDS011;68597;53.238;-1.418;2023-03-24T05:47:17;14.15;;;1.77;;
79171;SDS011;68597;53.238;-1.418;2023-03-24T05:49:43;13.18;;;2.97;;
79171;SDS011;68597;53.238;-1.418;2023-03-24T05:52:09;18.45;;;2.22;;
79171;SDS011;68597;53.238;-1.418;2023-03-24T05:54:39;9.48;;;2.10;;
79171;SDS011;68597;53.238;-1.418;2023-03-24T05:57:18;6.68;;;1.35;;
79171;SDS011;68597;53.238;-1.418;2023-03-24T06:00:05;13.32;;;1.80;;
79171;SDS011;68597;53.238;-1.418;2023-03-24T06:02:49;6.18;;;1.30;;
79171;SDS011;68597;53.238;-1.418;2023-03-24T06:05:25;8.75;;;2.05;;
79171;SDS011;68597;53.238;-1.418;2023-03-24T06:07:51;9.50;;;2.10;;
79171;SDS011;68597;53.238;-1.418;2023-03-24T06:10:19;10.43;;;1.52;;
79171;SDS011;68597;53.238;-1.418;2023-03-24T06:12:49;10.10;;;2.55;;
79171;SDS011;68597;53.238;-1.418;2023-03-24T06:15:15;17.35;;;2.97;;
79171;SDS011;68597;53.238;-1.418;2023-03-24T06:17:41;9.18;;;1.52;;
79171;SDS011;68597;53.238;-1.418;2023-03-24T06:20:15;12.93;;;1.88;;
79171;SDS011;68597;53.238;-1.418;2023-03-24T06:22:45;9.68;;;1.90;;
79171;SDS011;68597;53.238;-1.418;2023-03-24T06:25:14;11.50;;;2.03;;
79171;SDS011;68597;53.238;-1.418;2023-03-24T06:27:51;11.25;;;2.47;;
79171;SDS011;68597;53.238;-1.418;2023-03-24T06:30:20;17.35;;;2.40;;
79171;SDS011;68597;53.238;-1.418;2023-03-24T06:32:47;13.20;;;2.20;;
79171;SDS011;68597;53.238;-1.418;2023-03-24T06:35:14;11.95;;;2.70;;
79171;SDS011;68597;53.238;-1.418;2023-03-24T06:37:46;9.88;;;2.95;;
79171;SDS011;68597;53.238;-1.418;2023-03-24T06:40:13;20.08;;;3.15;;
79171;SDS011;68597;53.238;-1.418;2023-03-24T06:42:45;10.23;;;2.55;;
79171;SDS011;68597;53.238;-1.418;2023-03-24T06:45:12;20.50;;;2.60;;
79171;SDS011;68597;53.238;-1.418;2023-03-24T06:47:37;9.43;;;1.83;;
79171;SDS011;68597;53.238;-1.418;2023-03-24T06:50:04;12.68;;;1.98;;
79171;SDS011;68597;53.238;-1.418;2023-03-24T06:52:30;8.75;;;1.95;;
79171;SDS011;68597;53.238;-1.418;2023-03-24T06:54:56;19.95;;;2.30;;
79171;SDS011;68597;53.238;-1.418;2023-03-24T06:57:21;10.23;;;1.52;;
79171;SDS011;68597;53.238;-1.418;2023-03-24T07:00:06;9.70;;;2.13;;
79171;SDS011;68597;53.238;-1.418;2023-03-24T07:02:38;10.15;;;1.80;;
79171;SDS011;68597;53.238;-1.418;2023-03-24T07:05:04;10.63;;;1.95;;
79171;SDS011;68597;53.238;-1.418;2023-03-24T07:07:40;12.68;;;1.85;;
79171;SDS011;68597;53.238;-1.418;2023-03-24T07:10:28;9.90;;;2.05;;
79171;SDS011;68597;53.238;-1.418;2023-03-24T07:12:54;9.75;;;1.80;;
79171;SDS011;68597;53.238;-1.418;2023-03-24T07:15:20;10.52;;;2.28;;
79171;SDS011;68597;53.238;-1.418;2023-03-24T07:17:47;8.95;;;2.17;;
79171;SDS011;68597;53.238;-1.418;2023-03-24T07:20:19;10.30;;;3.17;;
79171;SDS011;68597;53.238;-1.418;2023-03-24T07:23:02;47.83;;;3.75;;
79171;SDS011;68597;53.238;-1.418;2023-03-24T07:25:41;15.93;;;2.05;;
79171;SDS011;68597;53.238;-1.418;2023-03-24T07:28:15;13.73;;;2.90;;
79171;SDS011;68597;53.238;-1.418;2023-03-24T07:30:41;14.93;;;2.55;;
79171;SDS011;68597;53.238;-1.418;2023-03-24T07:33:09;13.88;;;2.65;;
79171;SDS011;68597;53.238;-1.418;2023-03-24T07:35:36;15.55;;;3.92;;
79171;SDS011;68597;53.238;-1.418;2023-03-24T07:38:01;10.55;;;4.03;;
79171;SDS011;68597;53.238;-1.418;2023-03-24T07:40:27;12.60;;;2.63;;
79171;SDS011;68597;53.238;-1.418;2023-03-24T07:42:53;15.90;;;2.90;;
79171;SDS011;68597;53.238;-1.418;2023-03-24T07:45:37;10.18;;;1.77;;
79171;SDS011;68597;53.238;-1.418;2023-03-24T07:48:04;9.93;;;2.00;;
79171;SDS011;68597;53.238;-1.418;2023-03-24T07:50:35;16.15;;;3.15;;
79171;SDS011;68597;53.238;-1.418;2023-03-24T07:53:07;8.32;;;1.42;;
79171;SDS011;68597;53.238;-1.418;2023-03-24T07:55:32;8.68;;;1.85;;
79171;SDS011;68597;53.238;-1.418;2023-03-24T07:58:03;15.52;;;2.47;;
79171;SDS011;68597;53.238;-1.418;2023-03-24T08:00:34;19.02;;;2.88;;
79171;SDS011;68597;53.238;-1.418;2023-03-24T08:05:44;18.23;;;2.92;;
79171;SDS011;68597;53.238;-1.418;2023-03-24T08:08:28;12.35;;;2.33;;
79171;SDS011;68597;53.238;-1.418;2023-03-24T08:10:53;11.48;;;1.88;;
79171;SDS011;68597;53.238;-1.418;2023-03-24T08:13:19;15.77;;;4.18;;
79171;SDS011;68597;53.238;-1.418;2023-03-24T08:15:45;14.63;;;2.30;;
79171;SDS011;68597;53.238;-1.418;2023-03-24T08:18:10;13.38;;;2.63;;
79171;SDS011;68597;53.238;-1.418;2023-03-24T08:20:36;11.82;;;2.50;;
79171;SDS011;68597;53.238;-1.418;2023-03-24T08:23:03;14.43;;;2.63;;
79171;SDS011;68597;53.238;-1.418;2023-03-24T08:25:28;14.43;;;2.50;;
79171;SDS011;68597;53.238;-1.418;2023-03-24T08:27:54;18.08;;;2.80;;
79171;SDS011;68597;53.238;-1.418;2023-03-24T08:30:20;18.25;;;2.92;;
79171;SDS011;68597;53.238;-1.418;2023-03-24T08:32:48;17.98;;;2.53;;
79171;SDS011;68597;53.238;-1.418;2023-03-24T08:35:15;17.88;;;3.60;;
79171;SDS011;68597;53.238;-1.418;2023-03-24T08:37:43;12.18;;;2.15;;
79171;SDS011;68597;53.238;-1.418;2023-03-24T08:40:11;9.80;;;2.10;;
79171;SDS011;68597;53.238;-1.418;2023-03-24T08:42:38;11.88;;;2.33;;
79171;SDS011;68597;53.238;-1.418;2023-03-24T08:45:04;16.52;;;2.72;;
79171;SDS011;68597;53.238;-1.418;2023-03-24T08:47:30;10.52;;;2.40;;
79171;SDS011;68597;53.238;-1.418;2023-03-24T08:49:55;12.20;;;2.28;;
79171;SDS011;68597;53.238;-1.418;2023-03-24T08:52:21;17.58;;;2.35;;
79171;SDS011;68597;53.238;-1.418;2023-03-24T08:54:47;12.88;;;2.33;;
79171;SDS011;68597;53.238;-1.418;2023-03-24T08:57:14;16.58;;;2.40;;
79171;SDS011;68597;53.238;-1.418;2023-03-24T08:59:39;12.75;;;2.25;;
79171;SDS011;68597;53.238;-1.418;2023-03-24T09:02:04;14.00;;;2.42;;
79171;SDS011;68597;53.238;-1.418;2023-03-24T09:04:30;11.88;;;1.88;;
79171;SDS011;68597;53.238;-1.418;2023-03-24T09:06:55;8.80;;;1.70;;
79171;SDS011;68597;53.238;-1.418;2023-03-24T09:09:21;11.90;;;1.85;;
79171;SDS011;68597;53.238;-1.418;2023-03-24T09:11:46;16.20;;;1.77;;
79171;SDS011;68597;53.238;-1.418;2023-03-24T09:14:13;20.60;;;3.97;;
79171;SDS011;68597;53.238;-1.418;2023-03-24T09:16:39;15.90;;;2.58;;
79171;SDS011;68597;53.238;-1.418;2023-03-24T09:19:04;8.10;;;2.00;;
79171;SDS011;68597;53.238;-1.418;2023-03-24T09:21:30;14.85;;;2.80;;
79171;SDS011;68597;53.238;-1.418;2023-03-24T09:23:55;15.75;;;2.55;;
79171;SDS011;68597;53.238;-1.418;2023-03-24T09:26:21;10.48;;;2.17;;
79171;SDS011;68597;53.238;-1.418;2023-03-24T09:28:46;14.85;;;2.63;;
79171;SDS011;68597;53.238;-1.418;2023-03-24T09:31:13;11.00;;;2.10;;
79171;SDS011;68597;53.238;-1.418;2023-03-24T09:33:39;11.98;;;2.22;;
79171;SDS011;68597;53.238;-1.418;2023-03-24T09:36:04;11.77;;;2.08;;
79171;SDS011;68597;53.238;-1.418;2023-03-24T09:38:31;9.65;;;2.20;;
79171;SDS011;68597;53.238;-1.418;2023-03-24T09:40:57;11.77;;;2.05;;
79171;SDS011;68597;53.238;-1.418;2023-03-24T09:43:25;6.75;;;1.35;;
79171;SDS011;68597;53.238;-1.418;2023-03-24T09:45:56;12.38;;;2.88;;
79171;SDS011;68597;53.238;-1.418;2023-03-24T09:48:26;15.57;;;2.38;;
79171;SDS011;68597;53.238;-1.418;2023-03-24T09:50:58;11.70;;;2.72;;
79171;SDS011;68597;53.238;-1.418;2023-03-24T09:53:28;17.15;;;2.10;;
79171;SDS011;68597;53.238;-1.418;2023-03-24T09:56:00;8.63;;;1.50;;
79171;SDS011;68597;53.238;-1.418;2023-03-24T09:58:29;10.88;;;2.20;;
79171;SDS011;68597;53.238;-1.418;2023-03-24T10:00:56;8.77;;;1.35;;
79171;SDS011;68597;53.238;-1.418;2023-03-24T10:03:21;10.55;;;2.03;;
79171;SDS011;68597;53.238;-1.418;2023-03-24T10:05:50;14.75;;;2.33;;
79171;SDS011;68597;53.238;-1.418;2023-03-24T10:08:21;14.45;;;2.42;;
79171;SDS011;68597;53.238;-1.418;2023-03-24T10:10:55;10.15;;;2.30;;
79171;SDS011;68597;53.238;-1.418;2023-03-24T10:13:24;8.60;;;2.20;;
79171;SDS011;68597;53.238;-1.418;2023-03-24T10:15:58;14.23;;;2.38;;
79171;SDS011;68597;53.238;-1.418;2023-03-24T10:18:32;9.95;;;1.95;;
79171;SDS011;68597;53.238;-1.418;2023-03-24T10:23:32;9.55;;;1.80;;
79171;SDS011;68597;53.238;-1.418;2023-03-24T10:26:02;11.20;;;2.40;;
79171;SDS011;68597;53.238;-1.418;2023-03-24T10:28:34;13.35;;;1.80;;
79171;SDS011;68597;53.238;-1.418;2023-03-24T10:31:08;11.98;;;1.85;;
79171;SDS011;68597;53.238;-1.418;2023-03-24T10:33:35;9.48;;;2.00;;
79171;SDS011;68597;53.238;-1.418;2023-03-24T10:36:05;13.90;;;2.70;;
79171;SDS011;68597;53.238;-1.418;2023-03-24T10:40:59;13.93;;;2.08;;
79171;SDS011;68597;53.238;-1.418;2023-03-24T10:43:25;11.07;;;1.67;;
79171;SDS011;68597;53.238;-1.418;2023-03-24T10:45:52;9.00;;;1.90;;
79171;SDS011;68597;53.238;-1.418;2023-03-24T10:48:32;8.88;;;1.63;;
79171;SDS011;68597;53.238;-1.418;2023-03-24T10:50:59;9.95;;;1.67;;
79171;SDS011;68597;53.238;-1.418;2023-03-24T10:53:26;11.57;;;2.53;;
79171;SDS011;68597;53.238;-1.418;2023-03-24T10:55:52;8.95;;;1.77;;
79171;SDS011;68597;53.238;-1.418;2023-03-24T10:58:19;9.45;;;1.55;;
79171;SDS011;68597;53.238;-1.418;2023-03-24T11:00:50;10.68;;;2.08;;
79171;SDS011;68597;53.238;-1.418;2023-03-24T11:03:15;13.73;;;2.33;;
79171;SDS011;68597;53.238;-1.418;2023-03-24T11:05:46;16.17;;;2.97;;
79171;SDS011;68597;53.238;-1.418;2023-03-24T11:08:13;11.98;;;2.20;;
79171;SDS011;68597;53.238;-1.418;2023-03-24T11:10:50;8.68;;;1.55;;
79171;SDS011;68597;53.238;-1.418;2023-03-24T11:13:16;10.43;;;1.75;;
79171;SDS011;68597;53.238;-1.418;2023-03-24T11:15:51;11.95;;;1.80;;
79171;SDS011;68597;53.238;-1.418;2023-03-24T11:18:19;8.20;;;1.60;;
79171;SDS011;68597;53.238;-1.418;2023-03-24T11:20:45;12.25;;;2.03;;
79171;SDS011;68597;53.238;-1.418;2023-03-24T11:23:15;11.18;;;2.08;;
79171;SDS011;68597;53.238;-1.418;2023-03-24T11:25:44;13.15;;;1.92;;
79171;SDS011;68597;53.238;-1.418;2023-03-24T11:30:45;10.38;;;2.63;;
79171;SDS011;68597;53.238;-1.418;2023-03-24T11:33:14;14.05;;;2.10;;
79171;SDS011;68597;53.238;-1.418;2023-03-24T11:35:44;8.85;;;1.75;;
79171;SDS011;68597;53.238;-1.418;2023-03-24T11:38:12;8.90;;;1.50;;
79171;SDS011;68597;53.238;-1.418;2023-03-24T11:40:40;12.35;;;2.20;;
79171;SDS011;68597;53.238;-1.418;2023-03-24T11:43:19;11.75;;;2.15;;
79171;SDS011;68597;53.238;-1.418;2023-03-24T11:45:45;10.63;;;1.92;;
79171;SDS011;68597;53.238;-1.418;2023-03-24T11:48:22;8.45;;;1.75;;
79171;SDS011;68597;53.238;-1.418;2023-03-24T11:50:51;7.93;;;2.15;;
79171;SDS011;68597;53.238;-1.418;2023-03-24T11:53:20;8.50;;;1.33;;
79171;SDS011;68597;53.238;-1.418;2023-03-24T11:55:50;6.55;;;1.15;;
79171;SDS011;68597;53.238;-1.418;2023-03-24T11:58:26;6.97;;;1.05;;
79171;SDS011;68597;53.238;-1.418;2023-03-24T12:00:56;5.63;;;0.88;;
79171;SDS011;68597;53.238;-1.418;2023-03-24T12:03:36;4.43;;;1.23;;
79171;SDS011;68597;53.238;-1.418;2023-03-24T12:06:24;5.20;;;0.90;;
79171;SDS011;68597;53.238;-1.418;2023-03-24T12:09:03;3.85;;;0.88;;
79171;SDS011;68597;53.238;-1.418;2023-03-24T12:11:38;8.10;;;1.35;;
79171;SDS011;68597;53.238;-1.418;2023-03-24T12:14:22;5.95;;;1.25;;
79171;SDS011;68597;53.238;-1.418;2023-03-24T12:16:58;5.95;;;1.25;;
79171;SDS011;68597;53.238;-1.418;2023-03-24T12:22:32;7.78;;;1.02;;
79171;SDS011;68597;53.238;-1.418;2023-03-24T12:25:17;9.35;;;1.42;;
79171;SDS011;68597;53.238;-1.418;2023-03-24T12:27:55;3.42;;;0.68;;
79171;SDS011;68597;53.238;-1.418;2023-03-24T12:30:31;5.28;;;1.50;;
79171;SDS011;68597;53.238;-1.418;2023-03-24T12:33:05;7.15;;;1.58;;
79171;SDS011;68597;53.238;-1.418;2023-03-24T12:35:46;9.27;;;1.15;;
79171;SDS011;68597;53.238;-1.418;2023-03-24T12:38:24;9.48;;;1.35;;
79171;SDS011;68597;53.238;-1.418;2023-03-24T12:44:15;7.90;;;1.13;;
79171;SDS011;68597;53.238;-1.418;2023-03-24T12:46:55;6.80;;;1.00;;
79171;SDS011;68597;53.238;-1.418;2023-03-24T12:49:31;5.45;;;1.00;;
79171;SDS011;68597;53.238;-1.418;2023-03-24T12:52:10;5.65;;;0.80;;
79171;SDS011;68597;53.238;-1.418;2023-03-24T12:54:54;7.88;;;1.27;;
79171;SDS011;68597;53.238;-1.418;2023-03-24T12:57:24;8.63;;;1.98;;
79171;SDS011;68597;53.238;-1.418;2023-03-24T12:59:55;8.48;;;1.35;;
79171;SDS011;68597;53.238;-1.418;2023-03-24T13:02:25;3.75;;;0.75;;
79171;SDS011;68597;53.238;-1.418;2023-03-24T13:04:58;4.63;;;1.15;;
79171;SDS011;68597;53.238;-1.418;2023-03-24T13:07:26;3.10;;;0.93;;
79171;SDS011;68597;53.238;-1.418;2023-03-24T13:09:53;6.40;;;0.80;;
79171;SDS011;68597;53.238;-1.418;2023-03-24T13:12:22;4.05;;;0.77;;
79171;SDS011;68597;53.238;-1.418;2023-03-24T13:14:52;7.38;;;1.02;;
79171;SDS011;68597;53.238;-1.418;2023-03-24T13:17:27;5.18;;;0.85;;
79171;SDS011;68597;53.238;-1.418;2023-03-24T13:19:55;4.03;;;0.60;;
79171;SDS011;68597;53.238;-1.418;2023-03-24T13:22:23;4.63;;;0.80;;
79171;SDS011;68597;53.238;-1.418;2023-03-24T13:24:50;3.35;;;0.80;;
79171;SDS011;68597;53.238;-1.418;2023-03-24T13:27:18;4.72;;;1.13;;
79171;SDS011;68597;53.238;-1.418;2023-03-24T13:32:43;2.30;;;0.70;;
79171;SDS011;68597;53.238;-1.418;2023-03-24T13:35:14;2.70;;;0.82;;
79171;SDS011;68597;53.238;-1.418;2023-03-24T13:37:46;5.68;;;1.33;;
79171;SDS011;68597;53.238;-1.418;2023-03-24T13:40:18;4.18;;;0.68;;
79171;SDS011;68597;53.238;-1.418;2023-03-24T13:42:47;6.18;;;1.67;;
79171;SDS011;68597;53.238;-1.418;2023-03-24T13:45:29;4.85;;;0.75;;
79171;SDS011;68597;53.238;-1.418;2023-03-24T13:48:05;3.63;;;0.63;;
79171;SDS011;68597;53.238;-1.418;2023-03-24T13:50:45;6.50;;;0.82;;
79171;SDS011;68597;53.238;-1.418;2023-03-24T13:53:17;3.90;;;0.77;;
79171;SDS011;68597;53.238;-1.418;2023-03-24T13:55:50;4.30;;;1.13;;
79171;SDS011;68597;53.238;-1.418;2023-03-24T13:58:17;4.43;;;0.82;;
79171;SDS011;68597;53.238;-1.418;2023-03-24T14:03:34;6.78;;;1.33;;
79171;SDS011;68597;53.238;-1.418;2023-03-24T14:06:02;4.57;;;1.02;;
79171;SDS011;68597;53.238;-1.418;2023-03-24T14:08:42;7.13;;;1.00;;
79171;SDS011;68597;53.238;-1.418;2023-03-24T14:14:15;3.05;;;0.70;;
79171;SDS011;68597;53.238;-1.418;2023-03-24T14:16:43;5.68;;;0.93;;
79171;SDS011;68597;53.238;-1.418;2023-03-24T14:19:34;4.82;;;0.82;;
79171;SDS011;68597;53.238;-1.418;2023-03-24T14:24:46;6.05;;;1.02;;
79171;SDS011;68597;53.238;-1.418;2023-03-24T14:27:29;4.97;;;0.98;;
79171;SDS011;68597;53.238;-1.418;2023-03-24T14:29:58;5.38;;;0.93;;
79171;SDS011;68597;53.238;-1.418;2023-03-24T14:32:26;5.82;;;1.10;;
79171;SDS011;68597;53.238;-1.418;2023-03-24T14:34:53;4.03;;;1.10;;
79171;SDS011;68597;53.238;-1.418;2023-03-24T14:37:21;7.38;;;1.60;;
79171;SDS011;68597;53.238;-1.418;2023-03-24T14:39:47;6.47;;;1.25;;
79171;SDS011;68597;53.238;-1.418;2023-03-24T14:50:57;2.78;;;0.60;;
79171;SDS011;68597;53.238;-1.418;2023-03-24T14:53:25;2.92;;;0.75;;
79171;SDS011;68597;53.238;-1.418;2023-03-24T14:55:50;4.85;;;1.10;;
79171;SDS011;68597;53.238;-1.418;2023-03-24T14:58:19;4.00;;;0.95;;
79171;SDS011;68597;53.238;-1.418;2023-03-24T15:00:47;5.72;;;1.10;;
79171;SDS011;68597;53.238;-1.418;2023-03-24T15:03:16;5.70;;;0.80;;
79171;SDS011;68597;53.238;-1.418;2023-03-24T15:05:45;4.85;;;0.85;;
79171;SDS011;68597;53.238;-1.418;2023-03-24T15:08:13;2.72;;;0.65;;
79171;SDS011;68597;53.238;-1.418;2023-03-24T15:10:41;6.32;;;1.08;;
79171;SDS011;68597;53.238;-1.418;2023-03-24T15:13:25;6.32;;;1.58;;
79171;SDS011;68597;53.238;-1.418;2023-03-24T15:15:54;5.00;;;1.23;;
79171;SDS011;68597;53.238;-1.418;2023-03-24T15:18:20;7.70;;;1.30;;
79171;SDS011;68597;53.238;-1.418;2023-03-24T15:20:46;3.53;;;1.17;;
79171;SDS011;68597;53.238;-1.418;2023-03-24T15:23:16;5.15;;;0.85;;
79171;SDS011;68597;53.238;-1.418;2023-03-24T15:25:42;5.00;;;0.93;;
79171;SDS011;68597;53.238;-1.418;2023-03-24T15:28:10;3.38;;;0.60;;
79171;SDS011;68597;53.238;-1.418;2023-03-24T15:30:41;4.82;;;1.30;;
79171;SDS011;68597;53.238;-1.418;2023-03-24T15:33:07;3.20;;;0.85;;
79171;SDS011;68597;53.238;-1.418;2023-03-24T15:35:34;3.25;;;0.70;;
79171;SDS011;68597;53.238;-1.418;2023-03-24T15:38:00;3.60;;;1.15;;